Time;durP1;ratioP1;P1;durP2;ratioP2;P2;SDS_P1;SDS_P2;PMS_P1;PMS_P2;Temp;Humidity;BMP_temperature;BMP_pressure;BME280_temperature;BME280_humidity;BME280_pressure;Samples;Min_cycle;Max_cycle;Signal;HPM_P1;HPM_P2
2023/12/24 00:00:17;;;;;;;0.60;0.60;;;8.60;99.90;;;;;;4959853;28;20019;-88
2023/12/24 00:02:43;;;;;;;0.57;0.57;;;8.60;99.90;;;;;;4974095;28;20015;-90
2023/12/24 00:05:09;;;;;;;1.08;0.60;;;8.60;99.90;;;;;;4961057;28;20677;-86
2023/12/24 00:07:34;;;;;;;0.40;0.40;;;8.60;99.90;;;;;;4972486;28;20018;-86
2023/12/24 00:10:00;;;;;;;0.57;0.52;;;8.60;99.90;;;;;;4972530;28;20031;-88
2023/12/24 00:12:25;;;;;;;1.85;0.70;;;8.60;99.90;;;;;;4972220;28;20030;-88
2023/12/24 00:14:51;;;;;;;0.68;0.60;;;8.60;99.90;;;;;;4972305;28;20029;-88
2023/12/24 00:17:16;;;;;;;0.50;0.47;;;8.60;99.90;;;;;;4964734;28;20026;-87
2023/12/24 00:19:42;;;;;;;0.45;0.45;;;8.60;99.90;;;;;;4972109;28;20081;-88
2023/12/24 00:22:07;;;;;;;0.90;0.60;;;8.60;99.90;;;;;;4967902;28;20034;-86
2023/12/24 00:24:33;;;;;;;0.50;0.50;;;8.60;99.90;;;;;;4961796;28;20154;-86
2023/12/24 00:26:58;;;;;;;0.50;0.50;;;8.60;99.90;;;;;;4951781;28;20022;-89
2023/12/24 00:29:24;;;;;;;0.60;0.60;;;8.60;99.90;;;;;;4971271;28;20091;-89
2023/12/24 00:31:49;;;;;;;2.10;0.70;;;8.60;99.90;;;;;;4970176;28;20015;-89
2023/12/24 00:34:15;;;;;;;0.50;0.50;;;8.60;99.90;;;;;;4952750;28;20035;-88
2023/12/24 00:36:40;;;;;;;0.55;0.55;;;8.60;99.90;;;;;;4952527;28;20109;-88
2023/12/24 00:39:06;;;;;;;0.60;0.60;;;8.60;99.90;;;;;;4951962;28;20029;-88
2023/12/24 00:41:31;;;;;;;2.35;0.70;;;8.60;99.90;;;;;;4970962;28;20105;-87
2023/12/24 00:43:57;;;;;;;0.50;0.50;;;8.60;99.90;;;;;;4962250;28;20019;-87
2023/12/24 00:46:23;;;;;;;0.50;0.50;;;8.60;99.90;;;;;;4952582;28;20028;-86
2023/12/24 00:48:48;;;;;;;0.63;0.50;;;8.60;99.90;;;;;;4960083;28;20058;-88
2023/12/24 00:51:14;;;;;;;0.75;0.60;;;8.60;99.90;;;;;;4972505;28;20038;-88
2023/12/24 00:53:39;;;;;;;0.60;0.60;;;8.60;99.90;;;;;;4972619;28;20031;-88
2023/12/24 00:56:05;;;;;;;0.60;0.50;;;8.60;99.90;;;;;;4963240;28;20089;-87
2023/12/24 00:58:30;;;;;;;0.60;0.60;;;8.60;99.90;;;;;;4983907;28;20503;-88
2023/12/24 01:00:56;;;;;;;0.50;0.50;;;8.60;99.90;;;;;;4972544;28;20042;-87
2023/12/24 01:03:21;;;;;;;0.60;0.60;;;8.60;99.90;;;;;;4972293;28;20023;-88
2023/12/24 01:05:47;;;;;;;0.60;0.60;;;8.60;99.90;;;;;;4972355;28;20026;-87
2023/12/24 01:08:13;;;;;;;0.60;0.60;;;8.60;99.90;;;;;;4972515;28;20082;-87
2023/12/24 01:10:39;;;;;;;0.52;0.52;;;8.60;99.90;;;;;;4972443;28;20042;-86
2023/12/24 01:13:05;;;;;;;0.60;0.60;;;8.60;99.90;;;;;;4962109;28;20062;-87
2023/12/24 01:15:30;;;;;;;0.65;0.52;;;8.60;99.90;;;;;;4954991;28;20027;-89
2023/12/24 01:17:56;;;;;;;0.60;0.60;;;8.60;99.90;;;;;;4956808;28;20046;-87
2023/12/24 01:20:21;;;;;;;0.85;0.70;;;8.60;99.90;;;;;;4959723;28;20035;-87
2023/12/24 01:22:47;;;;;;;0.40;0.40;;;8.60;99.90;;;;;;4958532;28;20141;-88
2023/12/24 01:25:13;;;;;;;0.50;0.50;;;8.60;99.90;;;;;;4961868;28;20034;-88
2023/12/24 01:27:38;;;;;;;0.82;0.60;;;8.60;99.90;;;;;;4959971;28;20019;-88
2023/12/24 01:30:05;;;;;;;1.38;0.52;;;8.60;99.90;;;;;;4956572;28;20046;-88
2023/12/24 01:32:31;;;;;;;0.40;0.40;;;8.60;99.90;;;;;;4959082;28;20122;-88
2023/12/24 01:34:57;;;;;;;0.65;0.50;;;8.60;99.90;;;;;;4971495;28;20593;-88
2023/12/24 01:37:23;;;;;;;0.55;0.55;;;8.60;99.90;;;;;;4957263;28;20030;-87
2023/12/24 01:39:48;;;;;;;0.55;0.55;;;8.60;99.90;;;;;;4963690;28;20057;-86
2023/12/24 01:42:14;;;;;;;0.77;0.60;;;8.60;99.90;;;;;;4952397;28;20023;-87
2023/12/24 01:44:40;;;;;;;0.47;0.47;;;8.60;99.90;;;;;;4959170;28;20022;-88
2023/12/24 01:47:07;;;;;;;0.50;0.50;;;8.60;99.90;;;;;;4955115;28;20026;-87
2023/12/24 01:49:33;;;;;;;4.55;0.68;;;8.60;99.90;;;;;;4954927;28;20050;-88
2023/12/24 01:51:59;;;;;;;0.55;0.55;;;8.60;99.90;;;;;;4954462;28;20054;-88
2023/12/24 01:54:26;;;;;;;2.75;0.60;;;8.60;99.90;;;;;;4968345;28;20593;-87
2023/12/24 01:56:51;;;;;;;0.55;0.55;;;8.60;99.90;;;;;;4972084;28;20094;-88
2023/12/24 01:59:17;;;;;;;0.50;0.50;;;8.60;99.90;;;;;;4968444;28;20081;-87
2023/12/24 02:01:44;;;;;;;1.02;0.60;;;8.60;99.90;;;;;;4959498;28;20085;-89
2023/12/24 02:04:11;;;;;;;0.70;0.70;;;8.60;99.90;;;;;;4969378;28;20019;-87
2023/12/24 02:06:36;;;;;;;0.40;0.40;;;8.60;99.90;;;;;;4962532;28;20086;-87
2023/12/24 02:09:02;;;;;;;0.70;0.70;;;8.60;99.90;;;;;;4971951;28;20019;-89
2023/12/24 02:11:28;;;;;;;0.65;0.65;;;8.60;99.90;;;;;;4978934;28;20057;-86
2023/12/24 02:13:54;;;;;;;0.40;0.40;;;8.60;99.90;;;;;;4971637;28;20031;-88
2023/12/24 02:16:21;;;;;;;1.08;0.50;;;8.60;99.90;;;;;;4970661;28;20501;-88
2023/12/24 02:18:48;;;;;;;0.40;0.40;;;8.60;99.90;;;;;;4956480;28;20501;-87
2023/12/24 02:21:13;;;;;;;0.40;0.40;;;8.60;99.90;;;;;;4971442;28;20503;-87
2023/12/24 02:23:39;;;;;;;1.17;0.55;;;8.60;99.90;;;;;;4971838;28;20027;-87
2023/12/24 02:26:13;;;;;;;0.73;0.60;;;8.60;99.90;;;;;;4961820;28;21241;-87
2023/12/24 02:28:42;;;;;;;0.52;0.52;;;8.60;99.90;;;;;;4957990;28;20023;-87
2023/12/24 02:31:10;;;;;;;0.60;0.50;;;8.60;99.90;;;;;;4955783;28;20097;-87
2023/12/24 02:33:40;;;;;;;0.30;0.30;;;8.60;99.90;;;;;;4970868;28;20113;-87
2023/12/24 02:36:11;;;;;;;0.85;0.52;;;8.60;99.90;;;;;;4953969;28;20499;-89
2023/12/24 02:38:36;;;;;;;;;;;8.60;99.90;;;;;;4971889;28;20098;-86
2023/12/24 02:41:02;;;;;;;0.50;0.50;;;8.60;99.90;;;;;;4957573;28;20096;-87
2023/12/24 02:43:27;;;;;;;0.70;0.47;;;8.60;99.90;;;;;;4971641;28;20382;-88
2023/12/24 02:45:53;;;;;;;0.50;0.50;;;8.60;99.90;;;;;;4960304;28;20034;-88
2023/12/24 02:48:18;;;;;;;0.40;0.40;;;8.60;99.90;;;;;;4975037;28;20023;-87
2023/12/24 02:50:44;;;;;;;0.50;0.50;;;8.60;99.90;;;;;;4974657;28;20035;-88
2023/12/24 02:53:10;;;;;;;0.55;0.55;;;8.60;99.90;;;;;;4957647;28;20023;-87
2023/12/24 02:55:36;;;;;;;0.50;0.50;;;8.60;99.90;;;;;;4960882;28;20034;-87
2023/12/24 02:58:01;;;;;;;0.75;0.70;;;8.60;99.90;;;;;;4958746;28;20570;-89
2023/12/24 03:00:27;;;;;;;0.75;0.55;;;8.60;99.90;;;;;;4974800;28;20114;-88
2023/12/24 03:02:52;;;;;;;0.40;0.40;;;8.60;99.90;;;;;;4974708;28;20022;-89
2023/12/24 03:05:18;;;;;;;0.40;0.40;;;8.60;99.90;;;;;;4976075;28;20035;-89
2023/12/24 03:07:43;;;;;;;0.50;0.50;;;8.60;99.90;;;;;;4974452;28;20023;-90
2023/12/24 03:10:09;;;;;;;0.40;0.40;;;8.60;99.90;;;;;;4963792;28;20022;-89
2023/12/24 03:12:35;;;;;;;0.80;0.60;;;8.60;99.90;;;;;;4968903;28;20072;-89
2023/12/24 03:15:00;;;;;;;0.45;0.45;;;8.60;99.90;;;;;;4966448;28;20037;-89
2023/12/24 03:17:26;;;;;;;0.60;0.60;;;8.60;99.90;;;;;;4958949;28;20030;-86
2023/12/24 03:19:51;;;;;;;2.58;0.65;;;8.60;99.90;;;;;;4971793;28;20055;-86
2023/12/24 03:22:17;;;;;;;0.60;0.60;;;8.60;99.90;;;;;;4974228;28;20038;-87
2023/12/24 03:24:43;;;;;;;0.50;0.50;;;8.60;99.90;;;;;;4969816;28;20015;-86
2023/12/24 03:27:08;;;;;;;2.25;0.60;;;8.60;99.90;;;;;;4956981;28;20026;-87
2023/12/24 03:29:34;;;;;;;0.50;0.50;;;8.60;99.90;;;;;;4962819;28;20755;-87
2023/12/24 03:32:00;;;;;;;0.60;0.60;;;8.60;99.90;;;;;;4962323;28;20023;-87
2023/12/24 03:34:25;;;;;;;0.40;0.40;;;8.60;99.90;;;;;;4958290;28;20021;-87
2023/12/24 03:36:51;;;;;;;0.50;0.50;;;8.60;99.90;;;;;;4960626;28;20485;-88
2023/12/24 03:39:16;;;;;;;0.68;0.60;;;8.50;99.90;;;;;;4950638;28;20556;-88
2023/12/24 03:41:42;;;;;;;1.52;0.60;;;8.60;99.90;;;;;;4964426;28;20397;-88
2023/12/24 03:44:07;;;;;;;0.50;0.50;;;8.60;99.90;;;;;;4973763;28;20488;-87
2023/12/24 03:46:33;;;;;;;0.65;0.50;;;8.60;99.90;;;;;;4974012;28;20027;-88
2023/12/24 03:48:58;;;;;;;0.40;0.40;;;8.60;99.90;;;;;;4958032;28;20392;-86
2023/12/24 03:51:24;;;;;;;2.38;0.63;;;8.60;99.90;;;;;;4959143;28;20023;-88
2023/12/24 03:53:50;;;;;;;0.45;0.45;;;8.60;99.90;;;;;;4958517;28;20030;-88
2023/12/24 03:56:16;;;;;;;1.23;0.70;;;8.60;99.90;;;;;;4973874;28;20019;-87
2023/12/24 03:58:41;;;;;;;0.55;0.50;;;8.60;99.90;;;;;;4962274;28;20022;-88
2023/12/24 04:01:10;;;;;;;0.65;0.65;;;8.60;99.90;;;;;;4973448;28;20034;-88
2023/12/24 04:03:36;;;;;;;0.50;0.50;;;8.60;99.90;;;;;;4973437;28;20034;-87
2023/12/24 04:06:10;;;;;;;0.75;0.65;;;8.60;99.90;;;;;;4973970;28;20023;-87
2023/12/24 04:08:35;;;;;;;0.68;0.68;;;8.60;99.90;;;;;;4954703;28;20050;-87
2023/12/24 04:11:01;;;;;;;0.73;0.52;;;8.60;99.90;;;;;;4957725;28;20062;-89
2023/12/24 04:13:26;;;;;;;1.05;0.77;;;8.60;99.90;;;;;;4953810;28;20023;-87
2023/12/24 04:15:52;;;;;;;2.78;0.60;;;8.60;99.90;;;;;;4969489;28;20050;-87
2023/12/24 04:18:17;;;;;;;0.60;0.60;;;8.60;99.90;;;;;;4958375;28;20030;-88
2023/12/24 04:20:43;;;;;;;0.60;0.60;;;8.60;99.90;;;;;;4964560;28;20078;-88
2023/12/24 04:23:08;;;;;;;1.45;0.70;;;8.60;99.90;;;;;;4963550;28;20027;-87
2023/12/24 04:25:34;;;;;;;0.60;0.50;;;8.60;99.90;;;;;;4957465;28;20473;-88
2023/12/24 04:27:59;;;;;;;0.73;0.60;;;8.60;99.90;;;;;;4964377;28;20469;-87
2023/12/24 04:30:25;;;;;;;0.50;0.50;;;8.60;99.90;;;;;;4962104;28;20019;-87
2023/12/24 04:32:50;;;;;;;0.50;0.50;;;8.60;99.90;;;;;;4957681;28;20019;-87
2023/12/24 04:35:16;;;;;;;1.00;0.60;;;8.60;99.90;;;;;;4964001;28;20037;-87
2023/12/24 04:37:42;;;;;;;0.60;0.60;;;8.60;99.90;;;;;;4952551;28;20031;-89
2023/12/24 04:40:08;;;;;;;0.50;0.50;;;8.60;99.90;;;;;;4972444;28;20237;-89
2023/12/24 04:42:33;;;;;;;0.55;0.50;;;8.60;99.90;;;;;;4972881;28;20477;-88
2023/12/24 04:44:59;;;;;;;1.40;0.50;;;8.60;99.90;;;;;;4972754;28;20094;-88
2023/12/24 04:47:24;;;;;;;0.60;0.60;;;8.60;99.90;;;;;;4959103;28;20101;-88
2023/12/24 04:49:50;;;;;;;0.80;0.70;;;8.60;99.90;;;;;;4960285;28;20113;-88
2023/12/24 04:52:15;;;;;;;0.50;0.50;;;8.60;99.90;;;;;;4956527;28;20065;-88
2023/12/24 04:54:41;;;;;;;0.65;0.60;;;8.60;99.90;;;;;;4971924;28;20026;-88
2023/12/24 04:57:07;;;;;;;0.52;0.52;;;8.60;99.90;;;;;;4957471;28;20069;-88
2023/12/24 04:59:32;;;;;;;0.52;0.50;;;8.60;99.90;;;;;;4955553;28;20019;-88
2023/12/24 05:01:58;;;;;;;2.17;0.50;;;8.60;99.90;;;;;;4955056;28;20081;-86
2023/12/24 05:04:26;;;;;;;0.45;0.45;;;8.60;99.90;;;;;;4972075;28;20027;-87
2023/12/24 05:06:51;;;;;;;0.80;0.73;;;8.60;99.90;;;;;;4972642;28;20011;-89
2023/12/24 05:09:17;;;;;;;0.50;0.50;;;8.60;99.90;;;;;;4953663;28;20027;-87
2023/12/24 05:11:43;;;;;;;0.65;0.50;;;8.60;99.90;;;;;;4960913;28;20018;-87
2023/12/24 05:14:08;;;;;;;0.45;0.45;;;8.60;99.90;;;;;;4963126;28;20089;-88
2023/12/24 05:16:33;;;;;;;0.70;0.70;;;8.60;99.90;;;;;;4961831;28;20027;-88
2023/12/24 05:18:59;;;;;;;0.45;0.45;;;8.60;99.90;;;;;;4961096;28;20101;-88
2023/12/24 05:21:29;;;;;;;0.60;0.60;;;8.60;99.90;;;;;;4974583;28;20542;-88
2023/12/24 05:23:54;;;;;;;0.68;0.50;;;8.60;99.90;;;;;;4972579;28;20023;-88
2023/12/24 05:26:20;;;;;;;0.90;0.57;;;8.60;99.90;;;;;;4972396;28;20396;-87
2023/12/24 05:28:46;;;;;;;2.83;0.60;;;8.60;99.90;;;;;;4960419;28;20019;-88
2023/12/24 05:31:11;;;;;;;0.70;0.70;;;8.60;99.90;;;;;;4961262;28;20037;-89
2023/12/24 05:33:37;;;;;;;0.98;0.68;;;8.60;99.90;;;;;;4959564;28;20030;-86
2023/12/24 05:36:02;;;;;;;1.08;0.40;;;8.60;99.90;;;;;;4958555;28;20039;-88
2023/12/24 05:38:28;;;;;;;1.27;0.60;;;8.60;99.90;;;;;;4968540;28;20027;-88
2023/12/24 05:40:54;;;;;;;1.13;0.57;;;8.60;99.90;;;;;;4954566;28;20058;-87
2023/12/24 05:43:19;;;;;;;0.60;0.60;;;8.60;99.90;;;;;;4981179;28;20038;-86
2023/12/24 05:45:45;;;;;;;0.68;0.68;;;8.60;99.90;;;;;;4959536;28;20019;-87
2023/12/24 05:48:10;;;;;;;1.60;0.80;;;8.60;99.90;;;;;;4964925;28;20023;-87
2023/12/24 05:50:36;;;;;;;0.77;0.77;;;8.60;99.90;;;;;;4972181;28;20126;-87
2023/12/24 05:53:01;;;;;;;0.65;0.63;;;8.60;99.90;;;;;;4954633;28;20030;-88
2023/12/24 05:55:27;;;;;;;3.30;1.17;;;8.60;99.90;;;;;;4953745;28;20074;-87
2023/12/24 05:57:52;;;;;;;0.70;0.70;;;8.60;99.90;;;;;;4972144;28;20065;-87
2023/12/24 06:00:18;;;;;;;0.63;0.63;;;8.60;99.90;;;;;;4969211;28;20611;-87
2023/12/24 06:02:44;;;;;;;0.70;0.70;;;8.60;99.90;;;;;;4955589;28;20026;-89
2023/12/24 06:05:10;;;;;;;0.75;0.60;;;8.60;99.90;;;;;;4971261;28;20038;-86
2023/12/24 06:07:35;;;;;;;1.13;0.77;;;8.60;99.90;;;;;;4957217;28;20653;-88
2023/12/24 06:10:01;;;;;;;0.90;0.90;;;8.60;99.90;;;;;;4972209;28;20065;-89
2023/12/24 06:12:26;;;;;;;0.70;0.65;;;8.60;99.90;;;;;;4957493;28;21283;-87
2023/12/24 06:14:52;;;;;;;2.13;0.70;;;8.60;99.90;;;;;;4968827;28;20704;-88
2023/12/24 06:17:17;;;;;;;0.90;0.70;;;8.60;99.90;;;;;;4972467;28;20038;-87
2023/12/24 06:19:43;;;;;;;1.42;0.90;;;8.60;99.90;;;;;;4956403;28;20015;-88
2023/12/24 06:22:09;;;;;;;0.80;0.80;;;8.60;99.90;;;;;;4961129;28;20023;-88
2023/12/24 06:24:35;;;;;;;0.68;0.57;;;8.60;99.90;;;;;;4975937;28;20758;-89
2023/12/24 06:27:00;;;;;;;0.63;0.63;;;8.60;99.90;;;;;;4959439;28;20022;-89
2023/12/24 06:29:26;;;;;;;0.60;0.60;;;8.60;99.90;;;;;;4966209;28;20032;-89
2023/12/24 06:31:55;;;;;;;0.52;0.50;;;8.60;99.90;;;;;;4976383;28;20023;-90
2023/12/24 06:34:21;;;;;;;0.52;0.52;;;8.60;99.90;;;;;;4961374;28;20044;-90
2023/12/24 06:36:46;;;;;;;0.80;0.80;;;8.60;99.90;;;;;;4959273;28;20034;-90
2023/12/24 06:39:12;;;;;;;0.93;0.70;;;8.60;99.90;;;;;;4962062;28;20081;-89
2023/12/24 06:41:38;;;;;;;1.27;0.93;;;8.60;99.90;;;;;;4972904;28;20106;-90
2023/12/24 06:44:03;;;;;;;3.58;0.60;;;8.50;99.90;;;;;;4967092;28;20046;-90
2023/12/24 06:46:29;;;;;;;0.60;0.60;;;8.60;99.90;;;;;;4976363;28;20065;-89
2023/12/24 06:48:54;;;;;;;0.63;0.63;;;8.60;99.90;;;;;;4967449;28;20434;-90
2023/12/24 06:51:20;;;;;;;0.60;0.60;;;8.60;99.90;;;;;;4976031;28;20033;-90
2023/12/24 06:53:45;;;;;;;1.15;0.65;;;8.60;99.90;;;;;;4961626;28;20027;-84
2023/12/24 06:56:11;;;;;;;0.70;0.60;;;8.50;99.90;;;;;;4974667;28;20038;-85
2023/12/24 06:58:36;;;;;;;4.57;0.75;;;8.60;99.90;;;;;;4979715;28;20023;-94
2023/12/24 07:01:02;;;;;;;2.80;0.60;;;9.30;99.90;;;;;;4964113;28;20110;-95
2023/12/24 07:03:28;;;;;;;0.47;0.47;;;8.90;99.90;;;;;;4967980;28;20035;-94
2023/12/24 07:05:54;;;;;;;0.52;0.52;;;8.70;99.90;;;;;;4963991;28;20752;-94
2023/12/24 07:08:21;;;;;;;0.60;0.60;;;8.60;99.90;;;;;;4960739;28;20027;-92
2023/12/24 07:10:47;;;;;;;0.60;0.60;;;8.60;99.90;;;;;;4957808;28;20085;-93
2023/12/24 07:13:13;;;;;;;2.72;0.60;;;8.60;99.90;;;;;;4972318;28;20445;-95
2023/12/24 07:15:39;;;;;;;4.72;0.70;;;8.60;99.90;;;;;;4956942;28;20027;-94
2023/12/24 07:18:06;;;;;;;0.70;0.60;;;8.60;99.90;;;;;;4969948;28;20093;-94
2023/12/24 07:20:31;;;;;;;1.17;0.60;;;8.60;99.90;;;;;;4958817;28;20031;-88
2023/12/24 07:22:57;;;;;;;0.65;0.65;;;8.60;99.90;;;;;;4975828;28;20021;-92
2023/12/24 07:25:23;;;;;;;0.60;0.60;;;8.60;99.90;;;;;;4966834;28;20031;-90
2023/12/24 07:27:49;;;;;;;1.05;0.70;;;8.60;99.90;;;;;;4967732;28;20057;-93
2023/12/24 07:30:14;;;;;;;0.45;0.45;;;8.60;99.90;;;;;;4960618;28;20050;-89
2023/12/24 07:32:44;;;;;;;0.60;0.60;;;8.60;99.90;;;;;;4955789;28;20027;-88
2023/12/24 07:35:10;;;;;;;0.50;0.50;;;8.60;99.90;;;;;;4965441;28;20046;-94
2023/12/24 07:37:35;;;;;;;0.60;0.60;;;8.60;99.90;;;;;;4962194;28;20039;-91
2023/12/24 07:40:01;;;;;;;0.85;0.70;;;8.60;99.90;;;;;;4961519;28;20484;-91
2023/12/24 07:42:27;;;;;;;0.50;0.50;;;8.60;99.90;;;;;;4975237;28;20034;-92
2023/12/24 07:44:52;;;;;;;0.75;0.60;;;8.60;99.90;;;;;;4978238;28;20019;-96
2023/12/24 07:47:18;;;;;;;0.40;0.40;;;8.60;99.90;;;;;;4958128;28;20026;-90
2023/12/24 07:49:43;;;;;;;0.50;0.50;;;8.60;99.90;;;;;;4956138;28;20497;-85
2023/12/24 07:52:09;;;;;;;0.50;0.50;;;8.60;99.90;;;;;;4968801;28;20042;-84
2023/12/24 07:54:34;;;;;;;2.63;0.60;;;8.60;99.90;;;;;;4970954;28;20054;-85
2023/12/24 07:57:00;;;;;;;0.52;0.52;;;8.60;99.90;;;;;;4949290;28;20050;-84
2023/12/24 07:59:25;;;;;;;0.40;0.40;;;8.60;99.90;;;;;;4956182;28;20408;-85
2023/12/24 08:01:51;;;;;;;0.40;0.40;;;8.60;99.90;;;;;;4966952;28;20023;-85
2023/12/24 08:04:16;;;;;;;0.50;0.50;;;8.60;99.90;;;;;;4953036;28;20039;-86
2023/12/24 08:06:42;;;;;;;0.50;0.50;;;8.60;99.90;;;;;;4955533;28;20026;-86
2023/12/24 08:09:10;;;;;;;0.60;0.60;;;8.60;99.90;;;;;;4953526;28;20027;-86
2023/12/24 08:11:36;;;;;;;1.05;0.65;;;8.60;99.90;;;;;;4952381;28;20026;-85
2023/12/24 08:14:02;;;;;;;0.68;0.68;;;8.60;99.90;;;;;;4970480;28;20038;-86
2023/12/24 08:16:31;;;;;;;0.43;0.43;;;8.60;99.90;;;;;;4952849;28;20755;-93
2023/12/24 08:18:57;;;;;;;0.52;0.52;;;8.60;99.90;;;;;;4974202;28;20026;-94
2023/12/24 08:21:23;;;;;;;0.40;0.40;;;8.60;99.90;;;;;;4959280;28;20035;-94
2023/12/24 08:23:48;;;;;;;0.57;0.50;;;8.60;99.90;;;;;;4974692;28;20136;-93
2023/12/24 08:26:14;;;;;;;0.50;0.50;;;8.60;99.90;;;;;;4961905;28;20678;-93
2023/12/24 08:28:40;;;;;;;0.52;0.50;;;8.60;99.90;;;;;;4974498;28;20027;-93
2023/12/24 08:31:05;;;;;;;0.60;0.60;;;8.60;99.90;;;;;;4958142;28;20489;-94
2023/12/24 08:33:31;;;;;;;0.50;0.50;;;8.60;99.90;;;;;;4973048;28;20027;-94
2023/12/24 08:35:56;;;;;;;0.45;0.45;;;8.60;99.90;;;;;;4958146;28;20037;-94
2023/12/24 08:38:22;;;;;;;1.50;0.68;;;8.60;99.90;;;;;;4964442;28;20107;-93
2023/12/24 08:40:47;;;;;;;0.50;0.50;;;8.60;99.90;;;;;;4963940;28;20075;-93
2023/12/24 08:43:13;;;;;;;0.82;0.65;;;8.60;99.90;;;;;;4957155;28;20504;-93
2023/12/24 08:45:38;;;;;;;0.52;0.52;;;8.60;99.90;;;;;;4960185;28;20527;-94
2023/12/24 08:48:04;;;;;;;0.68;0.68;;;8.60;99.90;;;;;;4958708;28;20030;-93
2023/12/24 08:50:29;;;;;;;0.75;0.60;;;8.60;99.90;;;;;;4973904;28;20038;-94
2023/12/24 08:52:55;;;;;;;0.65;0.60;;;8.60;99.90;;;;;;4956793;28;20113;-92
2023/12/24 08:55:22;;;;;;;0.50;0.50;;;8.60;99.90;;;;;;4956082;28;20022;-93
2023/12/24 08:57:48;;;;;;;0.73;0.70;;;8.60;99.90;;;;;;4973045;28;20277;-93
2023/12/24 09:00:14;;;;;;;0.57;0.57;;;8.60;99.90;;;;;;4961001;28;20026;-93
2023/12/24 09:02:39;;;;;;;0.88;0.77;;;8.60;99.90;;;;;;4973344;28;20080;-92
2023/12/24 09:05:09;;;;;;;0.77;0.60;;;8.60;99.90;;;;;;4956111;28;20635;-93
2023/12/24 09:07:35;;;;;;;3.63;0.88;;;8.60;99.90;;;;;;4956413;28;20050;-93
2023/12/24 09:10:01;;;;;;;2.03;0.52;;;8.60;99.90;;;;;;4954982;28;20023;-93
2023/12/24 09:12:27;;;;;;;0.70;0.70;;;8.60;99.90;;;;;;4955921;28;20039;-93
2023/12/24 09:14:53;;;;;;;0.55;0.55;;;8.60;99.90;;;;;;4956746;28;20056;-93
2023/12/24 09:17:18;;;;;;;1.38;0.80;;;8.60;99.90;;;;;;4965553;28;20039;-92
2023/12/24 09:19:44;;;;;;;0.85;0.50;;;8.60;99.90;;;;;;4973505;28;20029;-93
2023/12/24 09:22:09;;;;;;;0.70;0.70;;;8.60;99.90;;;;;;4963454;28;20089;-93
2023/12/24 09:24:35;;;;;;;1.17;0.80;;;8.60;99.90;;;;;;4962064;28;20093;-94
2023/12/24 09:27:01;;;;;;;0.50;0.50;;;8.60;99.90;;;;;;4972962;28;20023;-94
2023/12/24 09:29:27;;;;;;;0.70;0.60;;;8.60;99.90;;;;;;4956126;28;20127;-93
2023/12/24 09:31:52;;;;;;;0.73;0.68;;;8.60;99.90;;;;;;4955989;28;20081;-94
2023/12/24 09:34:18;;;;;;;2.38;0.98;;;8.60;99.90;;;;;;4956397;28;20054;-93
2023/12/24 09:36:44;;;;;;;0.60;0.60;;;8.60;99.90;;;;;;4971524;28;20035;-93
2023/12/24 09:39:10;;;;;;;0.70;0.70;;;8.60;99.90;;;;;;4956520;28;20519;-93
2023/12/24 09:41:37;;;;;;;0.60;0.60;;;8.60;99.90;;;;;;4958968;28;20027;-93
2023/12/24 09:44:04;;;;;;;1.02;0.80;;;8.60;99.90;;;;;;4961793;28;20216;-93
2023/12/24 09:46:29;;;;;;;0.65;0.65;;;8.60;99.90;;;;;;4957357;28;20034;-93
2023/12/24 09:48:55;;;;;;;0.77;0.70;;;8.70;99.90;;;;;;4955449;28;20027;-94
2023/12/24 09:51:23;;;;;;;1.30;1.00;;;8.70;99.90;;;;;;4950386;28;20057;-88
2023/12/24 09:53:49;;;;;;;0.60;0.60;;;8.70;99.90;;;;;;4953862;28;20042;-89
2023/12/24 09:56:16;;;;;;;0.63;0.63;;;8.70;99.90;;;;;;4974177;28;20030;-88
2023/12/24 09:58:43;;;;;;;0.80;0.70;;;8.70;99.90;;;;;;4958524;28;20027;-88
2023/12/24 10:01:09;;;;;;;0.70;0.70;;;8.60;99.90;;;;;;4974635;28;20046;-88
2023/12/24 10:03:35;;;;;;;0.70;0.60;;;8.60;99.90;;;;;;4958414;28;20078;-89
2023/12/24 10:06:08;;;;;;;5.43;0.80;;;8.70;99.90;;;;;;4958816;28;20050;-91
2023/12/24 10:08:35;;;;;;;1.52;0.70;;;8.70;99.90;;;;;;4958744;28;20030;-90
2023/12/24 10:11:13;;;;;;;0.98;0.80;;;8.70;99.90;;;;;;4958242;28;20060;-89
2023/12/24 10:13:38;;;;;;;1.67;1.00;;;8.70;99.90;;;;;;4974422;28;20030;-89
2023/12/24 10:16:05;;;;;;;0.73;0.60;;;8.70;99.90;;;;;;4959087;28;20089;-89
2023/12/24 10:18:31;;;;;;;0.70;0.70;;;8.70;99.90;;;;;;4975636;28;20027;-88
2023/12/24 10:21:09;;;;;;;0.70;0.70;;;8.70;99.90;;;;;;4971642;28;20031;-90
2023/12/24 10:23:35;;;;;;;0.77;0.77;;;8.70;99.90;;;;;;4975683;28;20072;-90
2023/12/24 10:26:10;;;;;;;0.88;0.80;;;8.70;99.90;;;;;;4958539;28;20019;-90
2023/12/24 10:28:48;;;;;;;1.23;0.80;;;8.70;99.90;;;;;;4958077;28;20037;-88
2023/12/24 10:31:14;;;;;;;0.80;0.80;;;8.70;99.90;;;;;;4953814;28;20030;-89
2023/12/24 10:33:40;;;;;;;0.70;0.70;;;8.70;99.90;;;;;;4958061;28;20033;-91
2023/12/24 10:36:09;;;;;;;0.70;0.70;;;8.70;99.90;;;;;;4958298;28;20113;-89
2023/12/24 10:38:36;;;;;;;0.75;0.75;;;8.70;99.90;;;;;;4957509;28;20069;-92
2023/12/24 10:41:02;;;;;;;0.70;0.70;;;8.70;99.90;;;;;;4958426;28;20070;-91
2023/12/24 10:43:28;;;;;;;0.90;0.90;;;8.70;99.90;;;;;;4954793;28;20031;-91
2023/12/24 10:45:55;;;;;;;1.63;0.80;;;8.70;99.90;;;;;;4957717;28;20037;-90
2023/12/24 10:48:21;;;;;;;0.95;0.75;;;8.70;99.90;;;;;;4971101;28;20019;-91
2023/12/24 10:50:47;;;;;;;0.73;0.73;;;8.70;99.90;;;;;;4960398;28;20753;-90
2023/12/24 10:53:13;;;;;;;1.73;1.13;;;8.70;99.90;;;;;;4958127;28;20031;-94
2023/12/24 10:55:41;;;;;;;0.82;0.82;;;8.70;99.90;;;;;;4965584;28;20790;-88
2023/12/24 10:58:25;;;;;;;0.68;0.68;;;8.70;99.90;;;;;;4972621;28;20027;-91
2023/12/24 11:00:50;;;;;;;0.70;0.70;;;8.70;99.90;;;;;;4954624;28;20027;-83
2023/12/24 11:03:47;;;;;;;0.80;0.57;;;8.70;99.90;;;;;;4952923;28;20030;-84
2023/12/24 11:06:39;;;;;;;0.68;0.65;;;8.60;99.90;;;;;;4952434;28;20081;-83
2023/12/24 11:09:31;;;;;;;0.70;0.70;;;8.70;99.90;;;;;;4967704;28;20022;-84
2023/12/24 11:11:58;;;;;;;0.98;0.90;;;8.70;99.90;;;;;;4966939;28;20046;-83
2023/12/24 11:14:48;;;;;;;1.15;0.77;;;8.70;99.90;;;;;;4969856;28;20030;-83
2023/12/24 11:17:41;;;;;;;0.60;0.60;;;8.70;99.90;;;;;;4969397;28;20089;-82
2023/12/24 11:20:25;;;;;;;0.80;0.80;;;8.70;99.90;;;;;;4963836;28;20552;-82
2023/12/24 11:23:06;;;;;;;0.98;0.70;;;8.70;99.90;;;;;;4950877;28;20034;-93
2023/12/24 11:25:46;;;;;;;0.85;0.82;;;8.70;99.90;;;;;;4959408;28;20541;-91
2023/12/24 11:28:33;;;;;;;2.00;0.70;;;8.70;99.90;;;;;;4957802;28;20105;-93
2023/12/24 11:30:58;;;;;;;1.45;0.80;;;8.70;99.90;;;;;;4947181;28;20539;-94
2023/12/24 11:33:44;;;;;;;0.73;0.73;;;8.70;99.90;;;;;;4975464;28;20031;-94
2023/12/24 11:40:12;;;;;;;5.05;0.70;;;8.70;99.90;;;;;;4962135;28;20025;-83
2023/12/24 11:42:49;;;;;;;0.70;0.70;;;8.70;99.90;;;;;;4945400;28;20110;-83
2023/12/24 11:45:26;;;;;;;0.60;0.60;;;8.70;99.90;;;;;;4940688;29;20054;-82
2023/12/24 11:47:53;;;;;;;1.75;0.90;;;8.60;99.90;;;;;;4947764;28;20085;-82
2023/12/24 11:50:18;;;;;;;0.88;0.77;;;8.70;99.90;;;;;;4970328;28;20432;-82
2023/12/24 11:52:46;;;;;;;1.20;0.95;;;8.70;99.90;;;;;;4950340;28;20042;-83
2023/12/24 11:55:19;;;;;;;3.05;0.90;;;8.70;99.90;;;;;;4952681;28;20109;-84
2023/12/24 11:57:45;;;;;;;1.20;0.90;;;8.70;99.90;;;;;;4946934;28;20023;-82
2023/12/24 12:00:27;;;;;;;0.95;0.93;;;8.70;99.90;;;;;;4968946;28;20489;-83
2023/12/24 12:02:58;;;;;;;1.98;0.88;;;8.70;99.90;;;;;;4950661;28;20041;-81
2023/12/24 12:05:26;;;;;;;0.80;0.80;;;8.70;99.90;;;;;;4967997;28;20043;-81
2023/12/24 12:07:53;;;;;;;0.70;0.70;;;8.70;99.90;;;;;;4947613;28;20373;-82
2023/12/24 12:10:19;;;;;;;1.35;0.82;;;8.70;99.90;;;;;;4948173;28;20031;-81
2023/12/24 12:12:44;;;;;;;0.70;0.70;;;8.70;99.90;;;;;;4947671;28;20038;-85
2023/12/24 12:15:10;;;;;;;1.02;0.90;;;8.70;99.90;;;;;;4949259;28;20029;-84
2023/12/24 12:17:36;;;;;;;1.25;0.90;;;8.70;99.90;;;;;;4947383;28;20030;-82
2023/12/24 12:20:03;;;;;;;1.48;0.85;;;8.70;99.90;;;;;;4950119;28;20072;-81
2023/12/24 12:22:30;;;;;;;1.23;0.77;;;8.70;99.90;;;;;;4965694;28;20043;-82
2023/12/24 12:24:56;;;;;;;0.90;0.82;;;8.70;99.90;;;;;;4949565;28;20033;-82
2023/12/24 12:27:21;;;;;;;0.80;0.80;;;8.70;99.90;;;;;;4962630;28;20409;-83
2023/12/24 12:29:47;;;;;;;0.68;0.60;;;8.70;99.90;;;;;;4966571;28;20027;-81
2023/12/24 12:32:12;;;;;;;0.77;0.77;;;8.70;99.90;;;;;;4962504;28;20106;-82
2023/12/24 12:34:39;;;;;;;1.98;0.82;;;8.70;99.90;;;;;;4945618;28;20504;-83
2023/12/24 12:37:05;;;;;;;0.82;0.80;;;8.70;99.90;;;;;;4948987;28;20509;-81
2023/12/24 12:39:30;;;;;;;0.85;0.82;;;8.80;99.90;;;;;;4952122;28;20038;-83
2023/12/24 12:41:57;;;;;;;0.73;0.73;;;8.70;99.90;;;;;;4965806;28;20023;-83
2023/12/24 12:44:23;;;;;;;1.42;0.80;;;8.70;99.90;;;;;;4950857;28;20033;-83
2023/12/24 12:46:49;;;;;;;1.10;1.10;;;8.70;99.90;;;;;;4961844;28;20042;-82
2023/12/24 12:49:15;;;;;;;1.42;0.90;;;8.70;99.90;;;;;;4950568;28;20019;-85
2023/12/24 12:51:40;;;;;;;0.70;0.70;;;8.70;99.90;;;;;;4963072;28;20019;-84
2023/12/24 12:54:07;;;;;;;0.80;0.80;;;8.70;99.90;;;;;;4947243;28;20697;-85
2023/12/24 12:56:42;;;;;;;4.53;1.30;;;8.70;99.90;;;;;;4944538;28;20023;-84
2023/12/24 12:59:08;;;;;;;1.13;1.02;;;8.80;99.90;;;;;;4950182;28;20023;-84